createdAt,value
2023-02-01T00:00:31.711Z,21.58
2023-02-01T00:02:58.431Z,20.88
2023-02-01T00:05:25.245Z,25.60
2023-02-01T00:07:52.175Z,22.02
2023-02-01T00:10:19.096Z,19.92
2023-02-01T00:12:46.021Z,25.38
2023-02-01T00:15:13.028Z,23.48
2023-02-01T00:17:39.822Z,19.83
2023-02-01T00:20:07.200Z,23.02
2023-02-01T00:22:33.934Z,25.48
2023-02-01T00:25:00.767Z,34.05
2023-02-01T00:27:27.579Z,25.58
2023-02-01T00:29:56.316Z,21.40
2023-02-01T00:32:23.195Z,25.63
2023-02-01T00:34:49.984Z,23.83
2023-02-01T00:37:16.751Z,23.05
2023-02-01T00:39:43.570Z,21.33
2023-02-01T00:42:11.194Z,18.30
2023-02-01T00:44:38.080Z,23.23
2023-02-01T00:47:04.860Z,21.45
2023-02-01T00:49:31.681Z,26.58
2023-02-01T00:51:58.511Z,20.73
2023-02-01T00:54:25.577Z,25.20
2023-02-01T00:56:52.389Z,24.00
2023-02-01T00:59:19.482Z,24.63
2023-02-01T01:01:46.377Z,20.33
2023-02-01T01:04:13.261Z,26.98
2023-02-01T01:06:40.056Z,23.20
2023-02-01T01:09:08.692Z,22.80
2023-02-01T01:11:38.161Z,29.70
2023-02-01T01:14:06.564Z,21.85
2023-02-01T01:16:33.445Z,21.80
2023-02-01T01:19:01.242Z,25.05
2023-02-01T01:21:28.480Z,19.45
2023-02-01T01:23:55.610Z,21.85
2023-02-01T01:26:26.398Z,27.33
2023-02-01T01:28:55.459Z,30.60
2023-02-01T01:31:22.778Z,22.48
2023-02-01T01:33:51.775Z,18.52
2023-02-01T01:36:18.995Z,21.85
2023-02-01T01:38:45.801Z,21.33
2023-02-01T01:41:21.972Z,18.45
2023-02-01T01:43:58.552Z,23.55
2023-02-01T01:46:29.447Z,19.45
2023-02-01T01:49:11.951Z,14.90
2023-02-01T01:51:48.695Z,15.43
2023-02-01T01:54:35.649Z,21.23
2023-02-01T01:57:10.281Z,21.88
2023-02-01T01:59:39.371Z,18.50
2023-02-01T02:02:06.251Z,22.13
2023-02-01T02:04:35.353Z,15.02
2023-02-01T02:07:09.420Z,23.35
2023-02-01T02:09:36.456Z,15.75
2023-02-01T02:12:03.348Z,20.77
2023-02-01T02:14:30.933Z,28.67
2023-02-01T02:17:34.454Z,19.85
2023-02-01T02:20:30.287Z,18.48
2023-02-01T02:23:11.979Z,24.95
2023-02-01T02:25:56.601Z,17.73
2023-02-01T02:28:38.359Z,19.92
2023-02-01T02:31:42.824Z,21.85
2023-02-01T02:34:21.604Z,27.67
2023-02-01T02:37:03.174Z,20.52
2023-02-01T02:42:21.086Z,27.92
2023-02-01T02:45:09.439Z,18.63
2023-02-01T02:47:56.960Z,24.30
2023-02-01T02:51:16.310Z,24.65
2023-02-01T02:54:06.852Z,23.77
2023-02-01T02:56:53.889Z,17.00
2023-02-01T02:59:45.585Z,20.60
2023-02-01T03:02:32.762Z,26.45
2023-02-01T03:04:59.855Z,17.45
2023-02-01T03:07:45.264Z,28.13
2023-02-01T03:10:30.757Z,22.10
2023-02-01T03:13:05.850Z,25.48
2023-02-01T03:15:57.689Z,22.70
2023-02-01T03:19:06.759Z,19.83
2023-02-01T03:21:56.731Z,23.80
2023-02-01T03:24:34.711Z,24.73
2023-02-01T03:27:28.567Z,21.88
2023-02-01T03:30:01.459Z,20.00
2023-02-01T03:32:28.897Z,21.25
2023-02-01T03:34:56.757Z,17.98
2023-02-01T03:37:29.030Z,30.52
2023-02-01T03:40:04.460Z,24.98
2023-02-01T03:42:46.156Z,24.25
2023-02-01T03:45:13.089Z,25.70
2023-02-01T03:47:45.020Z,22.35
2023-02-01T03:50:19.274Z,25.02
2023-02-01T03:52:48.948Z,16.70
2023-02-01T03:55:18.687Z,25.85
2023-02-01T03:57:52.053Z,23.63
2023-02-01T04:00:23.331Z,22.98
2023-02-01T04:02:51.371Z,21.08
2023-02-01T04:05:18.481Z,19.65
2023-02-01T04:07:45.340Z,21.88
2023-02-01T04:10:12.794Z,22.42
2023-02-01T04:12:40.860Z,23.83
2023-02-01T04:15:08.870Z,26.38
2023-02-01T04:17:35.734Z,16.23
2023-02-01T04:20:02.564Z,18.25
2023-02-01T04:22:29.918Z,20.92
2023-02-01T04:24:56.700Z,16.75
2023-02-01T04:29:52.997Z,16.85
2023-02-01T04:32:20.991Z,27.63
2023-02-01T04:34:47.803Z,30.48
2023-02-01T04:37:14.555Z,22.38
2023-02-01T04:39:41.280Z,27.73
2023-02-01T04:42:08.069Z,21.08
2023-02-01T04:44:34.793Z,23.70
2023-02-01T04:47:01.529Z,21.27
2023-02-01T04:49:28.333Z,16.58
2023-02-01T04:51:55.094Z,20.15
2023-02-01T04:54:21.823Z,20.00
2023-02-01T04:56:48.643Z,18.05
2023-02-01T04:59:15.450Z,17.95
2023-02-01T05:01:42.248Z,13.60
2023-02-01T05:04:09.051Z,18.42
2023-02-01T05:06:35.794Z,19.77
2023-02-01T05:09:02.580Z,20.00
2023-02-01T05:11:48.252Z,19.17
2023-02-01T05:14:14.959Z,20.05
2023-02-01T05:16:41.751Z,18.63
2023-02-01T05:19:08.624Z,22.83
2023-02-01T05:21:35.355Z,21.20
2023-02-01T05:24:11.254Z,18.42
2023-02-01T05:26:39.314Z,16.70
2023-02-01T05:29:07.035Z,18.92
2023-02-01T05:31:34.408Z,21.23
2023-02-01T05:34:01.236Z,21.25
2023-02-01T05:36:28.597Z,18.17
2023-02-01T05:38:55.578Z,20.45
2023-02-01T05:41:22.400Z,21.60
2023-02-01T05:43:49.290Z,23.77
2023-02-01T05:46:16.488Z,23.58
2023-02-01T05:48:43.965Z,14.55
2023-02-01T05:51:12.161Z,19.55
2023-02-01T05:53:39.146Z,24.55
2023-02-01T05:56:06.376Z,18.13
2023-02-01T05:58:33.291Z,15.85
2023-02-01T06:01:01.579Z,21.13
2023-02-01T06:03:28.665Z,18.60
2023-02-01T06:05:56.006Z,23.60
2023-02-01T06:08:25.454Z,19.70
2023-02-01T06:10:58.252Z,18.98
2023-02-01T06:13:25.010Z,20.98
2023-02-01T06:15:52.439Z,22.27
2023-02-01T06:18:19.593Z,23.25
2023-02-01T06:20:46.371Z,30.58
2023-02-01T06:23:13.176Z,26.73
2023-02-01T06:25:39.970Z,26.48
2023-02-01T06:28:06.952Z,24.08
2023-02-01T06:30:33.898Z,24.88
2023-02-01T06:33:00.663Z,25.02
2023-02-01T06:35:27.667Z,21.73
2023-02-01T06:37:54.491Z,18.52
2023-02-01T06:40:21.416Z,21.00
2023-02-01T06:42:50.354Z,15.07
2023-02-01T06:45:17.484Z,18.85
2023-02-01T06:47:44.235Z,20.65
2023-02-01T06:50:11.431Z,20.15
2023-02-01T06:52:38.231Z,19.80
2023-02-01T06:55:05.339Z,20.23
2023-02-01T06:57:34.211Z,20.40
2023-02-01T07:00:01.449Z,16.05
2023-02-01T07:02:28.200Z,24.27
2023-02-01T07:04:54.949Z,17.50
2023-02-01T07:07:23.612Z,19.35
2023-02-01T07:09:51.069Z,24.40
2023-02-01T07:12:18.095Z,21.83
2023-02-01T07:14:44.922Z,17.25
2023-02-01T07:17:11.683Z,21.23
2023-02-01T07:19:38.424Z,15.80
2023-02-01T07:22:05.252Z,19.38
2023-02-01T07:24:32.479Z,23.45
2023-02-01T07:26:59.259Z,18.85
2023-02-01T07:29:26.105Z,16.92
2023-02-01T07:31:52.829Z,23.08
2023-02-01T07:34:19.573Z,23.40
2023-02-01T07:36:46.649Z,18.40
2023-02-01T07:39:13.404Z,28.50
2023-02-01T07:41:40.111Z,20.67
2023-02-01T07:44:06.955Z,18.33
2023-02-01T07:46:33.789Z,30.77
2023-02-01T07:49:00.618Z,22.10
2023-02-01T07:51:27.412Z,9.00
2023-02-01T07:53:56.233Z,27.20
2023-02-01T07:56:23.761Z,19.83
2023-02-01T07:58:52.248Z,21.70
2023-02-01T08:01:21.878Z,19.85
2023-02-01T08:03:50.246Z,26.23
2023-02-01T08:06:17.492Z,22.00
2023-02-01T08:08:46.326Z,20.92
2023-02-01T08:11:13.728Z,21.27
2023-02-01T08:13:40.853Z,17.05
2023-02-01T08:16:10.039Z,18.67
2023-02-01T08:18:38.664Z,17.08
2023-02-01T08:21:26.884Z,19.40
2023-02-01T08:23:53.906Z,22.17
2023-02-01T08:26:27.481Z,22.17
2023-02-01T08:29:00.763Z,17.15
2023-02-01T08:31:30.079Z,17.75
2023-02-01T08:33:59.735Z,20.73
2023-02-01T08:36:28.988Z,23.00
2023-02-01T08:38:56.194Z,20.08
2023-02-01T08:41:26.170Z,17.52
2023-02-01T08:43:55.256Z,19.52
2023-02-01T08:46:23.059Z,19.70
2023-02-01T08:48:50.581Z,15.82
2023-02-01T08:51:19.613Z,22.73
2023-02-01T08:53:47.177Z,24.73
2023-02-01T08:56:15.939Z,18.42
2023-02-01T08:58:43.105Z,19.17
2023-02-01T09:01:15.347Z,21.13
2023-02-01T09:03:42.282Z,23.80
2023-02-01T09:06:13.101Z,19.98
2023-02-01T09:08:41.315Z,15.77
2023-02-01T09:11:12.628Z,15.63
2023-02-01T09:16:06.398Z,19.13
2023-02-01T09:18:33.448Z,20.05
2023-02-01T09:21:00.577Z,22.50
2023-02-01T09:23:27.523Z,19.17
2023-02-01T09:25:54.396Z,22.00
2023-02-01T09:28:21.152Z,16.42
2023-02-01T09:30:48.212Z,15.35
2023-02-01T09:33:15.379Z,13.70
2023-02-01T09:35:42.182Z,16.27
2023-02-01T09:38:08.993Z,18.17
2023-02-01T09:40:36.660Z,11.20
2023-02-01T09:43:41.607Z,15.10
2023-02-01T09:46:43.628Z,15.20
2023-02-01T09:49:20.636Z,16.27
2023-02-01T09:51:51.170Z,21.10
2023-02-01T09:54:22.942Z,12.37
2023-02-01T09:57:09.663Z,15.32
2023-02-01T09:59:44.749Z,17.35
2023-02-01T10:02:24.215Z,12.95
2023-02-01T10:04:51.180Z,16.85
2023-02-01T10:07:46.639Z,17.73
2023-02-01T10:10:27.067Z,14.95
2023-02-01T10:13:24.817Z,17.83
2023-02-01T10:16:21.155Z,13.02
2023-02-01T10:19:23.339Z,14.18
2023-02-01T10:21:56.105Z,15.73
2023-02-01T10:24:41.271Z,22.35
2023-02-01T10:27:15.291Z,13.10
2023-02-01T10:29:44.850Z,8.68
2023-02-01T10:32:15.713Z,12.50
2023-02-01T10:34:45.567Z,10.95
2023-02-01T10:37:30.687Z,13.68
2023-02-01T10:40:00.589Z,11.57
2023-02-01T10:42:29.730Z,9.13
2023-02-01T10:45:00.533Z,14.35
2023-02-01T10:47:27.358Z,13.95
2023-02-01T10:50:08.079Z,15.98
2023-02-01T10:52:42.007Z,14.02
2023-02-01T10:55:50.717Z,17.23
2023-02-01T10:58:32.757Z,10.80
2023-02-01T11:01:06.429Z,13.68
2023-02-01T11:03:34.905Z,12.18
2023-02-01T11:06:05.143Z,12.23
2023-02-01T11:08:32.160Z,12.32
2023-02-01T11:11:02.138Z,10.18
2023-02-01T11:13:37.071Z,11.20
2023-02-01T11:16:05.782Z,9.52
2023-02-01T11:18:37.469Z,10.00
2023-02-01T11:21:06.518Z,15.38
2023-02-01T11:23:34.907Z,12.10
2023-02-01T11:26:09.373Z,11.23
2023-02-01T11:28:40.369Z,19.02
2023-02-01T11:31:13.463Z,17.63
2023-02-01T11:33:48.807Z,14.32
2023-02-01T11:36:22.763Z,13.52
2023-02-01T11:39:12.797Z,14.60
2023-02-01T11:41:44.441Z,17.45
2023-02-01T11:44:23.784Z,15.50
2023-02-01T11:46:50.793Z,11.65
2023-02-01T11:49:24.911Z,14.15
2023-02-01T11:52:19.578Z,19.05
2023-02-01T11:55:16.620Z,12.52
2023-02-01T11:57:58.620Z,10.48
2023-02-01T12:00:31.428Z,14.88
2023-02-01T12:03:19.705Z,8.85
2023-02-01T12:06:09.703Z,10.55
2023-02-01T12:09:00.237Z,10.63
2023-02-01T12:11:34.720Z,14.32
2023-02-01T12:14:20.427Z,10.45
2023-02-01T12:17:30.596Z,8.82
2023-02-01T12:20:24.767Z,7.95
2023-02-01T12:23:06.692Z,8.70
2023-02-01T12:25:45.475Z,6.90
2023-02-01T12:28:48.798Z,7.88
2023-02-01T12:31:33.898Z,5.88
2023-02-01T12:34:22.031Z,9.93
2023-02-01T12:36:57.961Z,12.68
2023-02-01T12:39:31.188Z,4.65
2023-02-01T12:42:24.243Z,8.00
2023-02-01T12:45:03.948Z,6.43
2023-02-01T12:47:42.927Z,3.70
2023-02-01T12:50:23.091Z,10.15
2023-02-01T12:52:52.998Z,9.10
2023-02-01T12:55:19.917Z,5.95
2023-02-01T12:57:53.330Z,9.88
2023-02-01T13:00:33.840Z,9.20
2023-02-01T13:03:18.815Z,8.98
2023-02-01T13:05:56.072Z,10.18
2023-02-01T22:04:25.631Z,2.33
2023-02-01T22:06:52.374Z,3.42
2023-02-01T22:09:24.183Z,3.30
2023-02-01T22:11:53.056Z,3.17
2023-02-01T22:14:20.577Z,3.70
2023-02-01T22:16:47.686Z,2.65
2023-02-01T22:19:15.346Z,6.18
2023-02-01T22:21:45.447Z,2.33
2023-02-01T22:24:15.733Z,4.35
2023-02-01T22:26:43.382Z,5.10
2023-02-01T22:29:13.225Z,3.00
2023-02-01T22:31:40.355Z,2.65
2023-02-01T22:34:07.295Z,6.63
2023-02-01T22:36:34.042Z,6.18
2023-02-01T22:39:00.850Z,3.60
2023-02-01T22:41:27.653Z,3.17
2023-02-01T22:43:54.402Z,2.55
2023-02-01T22:46:25.575Z,3.70
2023-02-01T22:48:52.684Z,2.75
2023-02-01T22:51:28.970Z,2.42
2023-02-01T22:54:00.108Z,3.30
2023-02-01T22:56:32.394Z,3.00
2023-02-01T22:59:04.933Z,3.22
2023-02-01T23:01:33.289Z,3.78
2023-02-01T23:04:03.115Z,4.68
2023-02-01T23:06:30.630Z,2.97
2023-02-01T23:09:03.285Z,4.63
2023-02-01T23:11:30.933Z,4.28
2023-02-01T23:13:57.875Z,6.05
2023-02-01T23:16:24.969Z,2.60
2023-02-01T23:18:51.855Z,4.60
2023-02-01T23:21:20.895Z,2.28
2023-02-01T23:23:53.272Z,2.83
2023-02-01T23:26:21.188Z,5.63
2023-02-01T23:28:50.749Z,3.58
2023-02-01T23:31:17.602Z,5.95
2023-02-01T23:33:45.547Z,5.60
2023-02-01T23:36:16.176Z,8.32
2023-02-01T23:38:44.205Z,7.70
2023-02-01T23:41:12.829Z,3.17
2023-02-01T23:43:58.094Z,2.17
2023-02-01T23:46:28.117Z,4.15
2023-02-01T23:48:55.361Z,3.95
2023-02-01T23:51:23.473Z,4.38
2023-02-01T23:53:50.706Z,3.80
2023-02-01T23:56:26.078Z,5.28
2023-02-01T23:58:53.933Z,3.90
